Peru, Indiana
Current Conditions -  °F | °C
As of 10:30 AM on Friday 31 Oct 2014 (Local Time) from KGUS Reporting Station
Light Rain Light Rain  
Wind Chill:   Ceiling: 1200
Heat Index:   Visibility: 10mi
Dew Point:   Wind: 14mph
Humidity: 100%   Direction: 320°NW
Pressure: 30"   Gusts: 21mph
Location:  40.75°N, 86.07°W
Report Text: KGUS 311430Z 32012G18KT 10SM -RA BKN012 OVC021 04/04 A3000 RMK BKN V OVC
Loading
Personal Weather Stations






























Interactive Weather Map
Tropical Storm Tracking
New forecast layout! Learn more

10-Day Weather Forecast

Advertisements
Track Severe Weather on mobile